Time;durP1;ratioP1;P1;durP2;ratioP2;P2;SDS_P1;SDS_P2;PMS_P1;PMS_P2;Temp;Humidity;BMP_temperature;BMP_pressure;BME280_temperature;BME280_humidity;BME280_pressure;Samples;Min_cycle;Max_cycle;Signal;HPM_P1;HPM_P2
2022/02/28 00:01:14;;;;;;;9.05;5.43;;;;;;;4.96;70.78;99540.44;5059486;28;20053;-94
2022/02/28 00:03:40;;;;;;;7.93;5.07;;;;;;;5.14;70.55;99567.81;5066991;28;20101;-95
2022/02/28 00:06:06;;;;;;;10.85;6.15;;;;;;;5.06;71.72;99572.16;5070425;28;20576;-95
2022/02/28 00:08:32;;;;;;;8.77;5.28;;;;;;;4.97;71.80;99558.03;5070600;28;20051;-95
2022/02/28 00:10:58;;;;;;;14.45;6.13;;;;;;;4.83;72.82;99542.94;5071591;28;20120;-94
2022/02/28 00:13:24;;;;;;;14.25;5.85;;;;;;;4.66;73.67;99532.28;5071643;28;20548;-95
2022/02/28 00:15:51;;;;;;;10.18;5.60;;;;;;;4.76;73.18;99548.19;5070903;28;20124;-95
2022/02/28 00:18:17;;;;;;;8.30;5.05;;;;;;;4.64;73.85;99531.41;5059316;28;20043;-94
2022/02/28 00:20:43;;;;;;;9.90;5.15;;;;;;;4.62;74.00;99530.50;5058466;28;20502;-95
2022/02/28 00:23:10;;;;;;;10.90;5.57;;;;;;;4.72;74.57;99547.25;5058469;28;20041;-94
2022/02/28 00:25:36;;;;;;;13.60;5.75;;;;;;;4.57;74.71;99529.53;5058427;28;20378;-95
2022/02/28 00:28:05;;;;;;;10.43;6.35;;;;;;;4.66;75.07;99555.09;5057831;28;20137;-92
2022/02/28 00:30:32;;;;;;;9.85;5.85;;;;;;;4.60;75.23;99548.03;5057747;28;20064;-93
2022/02/28 00:32:59;;;;;;;11.90;6.18;;;;;;;4.46;76.03;99529.44;5057863;28;20045;-95
2022/02/28 00:35:25;;;;;;;11.30;6.25;;;;;;;4.59;75.74;99550.66;5057977;28;20169;-93
2022/02/28 00:37:51;;;;;;;11.07;6.20;;;;;;;4.58;74.87;99525.19;5057540;28;20497;-93
2022/02/28 00:40:17;;;;;;;11.77;5.47;;;;;;;4.45;75.28;99516.28;5057258;28;20549;-96
2022/02/28 00:42:43;;;;;;;10.52;5.57;;;;;;;4.64;74.76;99548.94;5056911;28;20486;-92
2022/02/28 00:45:09;;;;;;;11.98;5.80;;;;;;;4.53;75.16;99527.75;5056664;28;20045;-95
2022/02/28 00:47:36;;;;;;;11.18;5.65;;;;;;;4.47;75.38;99522.44;5056938;28;20414;-95
2022/02/28 00:50:04;;;;;;;8.32;5.85;;;;;;;4.59;75.33;99553.28;5057661;28;20095;-91
2022/02/28 00:52:30;;;;;;;8.43;5.63;;;;;;;4.59;75.08;99548.88;5057079;28;20072;-94
2022/02/28 00:54:56;;;;;;;9.48;5.85;;;;;;;4.61;75.11;99549.78;5056815;28;20068;-93
2022/02/28 00:57:22;;;;;;;10.07;5.45;;;;;;;4.62;75.12;99570.00;5056804;28;20131;-93
2022/02/28 00:59:48;;;;;;;11.85;5.53;;;;;;;4.46;75.67;99547.00;5056486;28;20044;-93
2022/02/28 01:02:14;;;;;;;9.40;5.40;;;;;;;4.53;75.70;99575.16;5056721;28;20041;-94
2022/02/28 01:04:42;;;;;;;10.13;5.20;;;;;;;4.49;75.45;99566.38;5057029;28;20047;-95
2022/02/28 01:07:10;;;;;;;9.80;6.38;;;;;;;4.59;74.81;99574.34;5056670;28;20091;-94
2022/02/28 01:09:36;;;;;;;8.18;4.78;;;;;;;4.60;74.69;99584.00;5056665;28;20037;-92
2022/02/28 01:12:07;;;;;;;9.23;5.63;;;;;;;4.58;74.35;99562.94;5057022;28;20091;-93
2022/02/28 01:14:33;;;;;;;11.57;5.03;;;;;;;4.52;73.29;99536.53;5056555;28;20051;-95
2022/02/28 01:16:59;;;;;;;9.85;5.85;;;;;;;4.49;73.56;99545.31;5056270;28;20052;-93
2022/02/28 01:19:25;;;;;;;9.68;5.63;;;;;;;4.62;73.15;99567.38;5056940;28;20049;-93
2022/02/28 01:21:51;;;;;;;9.38;4.85;;;;;;;4.76;73.01;99575.41;5056105;28;20052;-94
2022/02/28 01:24:18;;;;;;;7.95;4.88;;;;;;;4.59;73.37;99548.00;5056020;28;20443;-91
2022/02/28 01:26:45;;;;;;;11.20;5.82;;;;;;;4.54;73.46;99547.97;5056357;28;20048;-95
2022/02/28 01:29:11;;;;;;;12.48;6.47;;;;;;;4.62;73.28;99569.09;5055911;28;20051;-93
2022/02/28 01:31:37;;;;;;;12.15;5.28;;;;;;;4.49;74.01;99555.84;5056001;28;20108;-93
2022/02/28 01:34:03;;;;;;;9.63;4.75;;;;;;;4.47;73.67;99543.53;5055542;28;20064;-94
2022/02/28 01:36:29;;;;;;;9.60;5.03;;;;;;;4.55;73.98;99560.25;5056265;28;20466;-93
2022/02/28 01:38:55;;;;;;;8.85;5.03;;;;;;;4.62;73.64;99572.66;5055770;28;20048;-93
2022/02/28 01:41:22;;;;;;;8.50;5.28;;;;;;;4.54;74.21;99574.31;5055894;28;20049;-94
2022/02/28 01:43:48;;;;;;;10.02;5.15;;;;;;;4.53;74.15;99569.91;5055665;28;20121;-94
2022/02/28 01:46:14;;;;;;;11.43;4.88;;;;;;;4.38;74.08;99553.94;5055232;28;20565;-94
2022/02/28 01:48:40;;;;;;;12.15;5.50;;;;;;;4.54;74.25;99582.22;5055179;28;20044;-93
2022/02/28 01:51:05;;;;;;;8.65;4.65;;;;;;;4.49;74.33;99570.75;5055326;28;20072;-95
2022/02/28 01:53:31;;;;;;;10.05;4.90;;;;;;;4.37;74.37;99560.97;5055836;28;20438;-95
2022/02/28 01:55:57;;;;;;;9.18;5.72;;;;;;;4.52;74.36;99586.59;5055510;28;20055;-95
2022/02/28 01:58:32;;;;;;;9.52;5.72;;;;;;;4.50;74.01;99580.41;5056053;28;20040;-94
2022/02/28 02:00:58;;;;;;;11.77;5.80;;;;;;;4.39;74.28;99574.16;5055379;28;20053;-92
2022/02/28 02:03:24;;;;;;;10.60;5.10;;;;;;;4.36;74.52;99567.13;5055679;28;20049;-95
2022/02/28 02:05:50;;;;;;;8.05;4.80;;;;;;;4.52;74.71;99600.63;5055105;28;20110;-94
2022/02/28 02:08:15;;;;;;;7.32;4.32;;;;;;;4.42;74.65;99587.34;5056551;28;20072;-95
2022/02/28 02:10:44;;;;;;;9.15;4.82;;;;;;;4.32;74.59;99571.44;5055969;28;20048;-95
2022/02/28 02:13:11;;;;;;;9.77;4.57;;;;;;;4.32;75.22;99581.97;5055303;28;20575;-95
2022/02/28 02:15:39;;;;;;;9.77;4.70;;;;;;;4.36;74.14;99576.75;5055304;28;20091;-95
2022/02/28 02:18:05;;;;;;;13.75;4.50;;;;;;;4.38;74.31;99588.16;5055661;28;20044;-96
2022/02/28 02:20:35;;;;;;;9.07;4.63;;;;;;;4.37;74.30;99589.06;5054808;28;20057;-96
2022/02/28 02:23:03;;;;;;;10.55;5.00;;;;;;;4.37;74.25;99589.06;5054677;28;20068;-94
2022/02/28 02:25:29;;;;;;;11.18;4.43;;;;;;;4.27;73.96;99580.16;5054943;28;20041;-93
2022/02/28 02:27:55;;;;;;;9.68;4.90;;;;;;;4.30;73.94;99570.56;5054994;28;20134;-94
2022/02/28 02:30:21;;;;;;;7.65;4.32;;;;;;;4.31;74.06;99585.47;5054211;28;20372;-93
2022/02/28 02:32:47;;;;;;;7.80;4.43;;;;;;;4.31;75.13;99589.84;5054620;28;20044;-96
2022/02/28 02:35:13;;;;;;;8.52;4.90;;;;;;;4.22;75.36;99588.00;5054759;28;20041;-95
2022/02/28 02:37:40;;;;;;;7.00;4.28;;;;;;;4.13;75.66;99585.28;5054782;28;20048;-94
2022/02/28 02:40:07;;;;;;;8.10;4.82;;;;;;;4.17;75.42;99584.44;5054639;28;20049;-94
2022/02/28 02:42:33;;;;;;;10.90;4.40;;;;;;;4.11;75.46;99579.09;5054995;28;20043;-93
2022/02/28 02:44:59;;;;;;;8.52;4.55;;;;;;;4.00;75.45;99557.03;5055061;28;20040;-94
2022/02/28 02:47:25;;;;;;;7.57;4.80;;;;;;;4.20;75.01;99595.00;5054947;28;20044;-94
2022/02/28 02:49:51;;;;;;;10.15;4.40;;;;;;;4.21;74.99;99585.38;5054634;28;20044;-94
2022/02/28 02:52:16;;;;;;;6.53;4.20;;;;;;;4.06;75.75;99579.06;5054698;28;20181;-94
2022/02/28 02:54:44;;;;;;;9.88;4.60;;;;;;;4.00;75.44;99554.41;5054277;28;20490;-94
2022/02/28 02:57:09;;;;;;;8.32;4.40;;;;;;;4.00;74.99;99557.91;5054499;28;20128;-95
2022/02/28 02:59:35;;;;;;;8.18;4.65;;;;;;;4.02;75.43;99550.94;5055232;28;20430;-94
2022/02/28 03:02:01;;;;;;;9.90;4.63;;;;;;;4.04;75.23;99551.81;5054992;28;20056;-94
2022/02/28 03:04:27;;;;;;;9.57;4.60;;;;;;;4.12;75.60;99575.63;5054464;28;20140;-94
2022/02/28 03:06:53;;;;;;;10.45;5.00;;;;;;;4.03;75.82;99564.97;5054570;28;20049;-96
2022/02/28 03:09:19;;;;;;;12.27;5.25;;;;;;;3.94;76.21;99560.47;5055465;28;20083;-96
2022/02/28 03:11:46;;;;;;;8.18;4.53;;;;;;;4.00;76.18;99570.19;5055320;28;20132;-95
2022/02/28 03:14:13;;;;;;;7.60;4.38;;;;;;;3.89;76.98;99572.69;5054753;28;20044;-95
2022/02/28 03:16:39;;;;;;;7.78;5.25;;;;;;;3.66;77.52;99557.47;5055871;28;20104;-94
2022/02/28 03:19:05;;;;;;;8.80;4.65;;;;;;;3.73;77.03;99563.72;5055458;28;20061;-95
2022/02/28 03:21:31;;;;;;;6.72;4.38;;;;;;;3.80;77.09;99577.84;5056207;28;20055;-95
2022/02/28 03:23:57;;;;;;;11.32;5.00;;;;;;;3.60;77.43;99561.78;5055961;28;20120;-96
2022/02/28 03:26:23;;;;;;;12.50;4.82;;;;;;;3.75;77.65;99583.03;5055290;28;20037;-95
2022/02/28 03:28:51;;;;;;;8.88;5.10;;;;;;;3.72;76.61;99572.47;5055182;28;20041;-95
2022/02/28 03:31:17;;;;;;;9.35;5.05;;;;;;;3.73;76.45;99566.38;5054668;28;20040;-94
2022/02/28 03:33:43;;;;;;;9.07;4.85;;;;;;;3.79;76.20;99565.53;5054881;28;20052;-94
2022/02/28 03:36:09;;;;;;;7.70;4.72;;;;;;;3.81;75.51;99562.06;5054788;28;20047;-95
2022/02/28 03:38:34;;;;;;;12.68;5.40;;;;;;;3.84;75.92;99574.41;5054104;28;20486;-95
2022/02/28 03:41:00;;;;;;;8.25;5.30;;;;;;;3.75;77.21;99575.13;5054337;28;20049;-95
2022/02/28 03:43:26;;;;;;;11.68;5.28;;;;;;;3.70;77.00;99561.03;5054706;28;20119;-96
2022/02/28 03:45:55;;;;;;;8.80;5.00;;;;;;;3.86;75.66;99560.41;5054152;28;20139;-95
2022/02/28 03:48:21;;;;;;;9.55;4.97;;;;;;;3.81;75.84;99553.28;5054606;28;20045;-96
2022/02/28 03:50:46;;;;;;;9.50;5.15;;;;;;;3.75;76.04;99547.94;5055069;28;20115;-95
2022/02/28 03:53:12;;;;;;;9.43;5.20;;;;;;;3.76;76.05;99541.84;5057684;28;20049;-96
2022/02/28 03:55:38;;;;;;;10.18;4.68;;;;;;;3.84;76.70;99579.66;5057769;28;20087;-95
2022/02/28 03:58:04;;;;;;;9.73;5.03;;;;;;;3.56;77.50;99546.84;5057772;28;20076;-96
2022/02/28 04:00:30;;;;;;;11.40;4.90;;;;;;;3.68;77.39;99574.16;5057414;28;20041;-95
2022/02/28 04:02:58;;;;;;;10.30;5.32;;;;;;;3.45;77.92;99534.44;5057573;28;20045;-95
2022/02/28 04:05:23;;;;;;;8.45;4.65;;;;;;;3.51;78.10;99559.91;5057182;28;20049;-95
2022/02/28 04:07:49;;;;;;;8.38;5.28;;;;;;;3.48;77.61;99547.59;5057474;28;20136;-95
2022/02/28 04:10:15;;;;;;;11.77;5.88;;;;;;;3.26;79.84;99537.66;5057230;28;20072;-96
2022/02/28 04:12:41;;;;;;;12.93;5.25;;;;;;;3.20;80.03;99548.94;5057337;28;20116;-95
2022/02/28 04:15:08;;;;;;;10.23;5.40;;;;;;;3.19;79.94;99546.28;5057549;28;20379;-95
2022/02/28 04:17:33;;;;;;;10.15;4.95;;;;;;;3.32;79.58;99564.03;5057147;28;20068;-95
2022/02/28 04:20:03;;;;;;;9.48;5.25;;;;;;;3.05;80.77;99569.75;5057053;28;20045;-96
2022/02/28 04:22:29;;;;;;;19.58;5.75;;;;;;;2.75;82.21;99534.22;5057212;28;20518;-94
2022/02/28 04:24:55;;;;;;;16.77;5.95;;;;;;;2.85;81.60;99530.91;5057179;28;20044;-95
2022/02/28 04:27:21;;;;;;;11.77;5.53;;;;;;;2.96;81.24;99549.47;5056898;28;20387;-94
2022/02/28 04:29:47;;;;;;;12.48;5.97;;;;;;;3.02;81.07;99544.31;5056971;28;20049;-94
2022/02/28 04:32:13;;;;;;;10.02;5.45;;;;;;;3.08;80.94;99554.91;5057170;28;20049;-95
2022/02/28 04:34:39;;;;;;;12.43;6.60;;;;;;;3.28;78.90;99538.56;5057022;28;20049;-93
2022/02/28 04:37:06;;;;;;;9.50;5.60;;;;;;;3.33;78.72;99530.75;5057482;28;20377;-95
2022/02/28 04:39:32;;;;;;;11.25;5.72;;;;;;;3.50;78.22;99551.13;5056854;28;20481;-94
2022/02/28 04:41:58;;;;;;;11.60;5.93;;;;;;;3.39;77.99;99538.72;5056759;28;20060;-93
2022/02/28 04:44:24;;;;;;;11.52;6.00;;;;;;;3.38;77.60;99524.66;5058312;28;20037;-94
2022/02/28 04:46:50;;;;;;;11.32;5.22;;;;;;;3.45;77.49;99539.69;5057454;28;20045;-93
2022/02/28 04:49:15;;;;;;;10.45;6.47;;;;;;;3.49;77.15;99536.25;5057635;28;20504;-94
2022/02/28 04:51:41;;;;;;;11.77;6.15;;;;;;;3.63;76.71;99554.81;5057451;28;20052;-94
2022/02/28 04:54:08;;;;;;;10.10;5.40;;;;;;;3.48;77.61;99547.59;5056551;28;20136;-95
2022/02/28 04:56:34;;;;;;;12.25;5.65;;;;;;;3.38;78.06;99552.72;5056774;28;20540;-95
2022/02/28 04:59:00;;;;;;;9.45;5.63;;;;;;;3.33;77.67;99539.50;5057760;28;20128;-94
2022/02/28 05:01:26;;;;;;;13.80;5.57;;;;;;;3.15;78.20;99528.72;5056475;28;20044;-95
2022/02/28 05:03:52;;;;;;;10.68;6.03;;;;;;;2.97;79.73;99538.09;5056561;28;20076;-94
2022/02/28 05:06:18;;;;;;;11.48;5.90;;;;;;;2.79;80.61;99543.03;5056275;28;20382;-96
2022/02/28 05:08:44;;;;;;;12.43;5.80;;;;;;;2.72;81.03;99541.19;5056511;28;20052;-94
2022/02/28 05:11:11;;;;;;;10.77;5.90;;;;;;;2.68;81.08;99542.88;5056134;28;20053;-93
2022/02/28 05:13:37;;;;;;;10.07;6.05;;;;;;;2.79;80.65;99564.06;5056587;28;20045;-94
2022/02/28 05:16:03;;;;;;;12.68;6.50;;;;;;;2.87;79.91;99559.81;5056186;28;20045;-94
2022/02/28 05:18:29;;;;;;;12.45;6.53;;;;;;;3.00;78.72;99547.78;5056488;28;20052;-94
2022/02/28 05:20:55;;;;;;;11.57;5.50;;;;;;;3.05;77.67;99530.31;5056387;28;20041;-93
2022/02/28 05:23:21;;;;;;;11.50;6.38;;;;;;;3.17;77.79;99543.66;5056551;28;20045;-95
2022/02/28 05:25:46;;;;;;;11.52;6.18;;;;;;;3.27;77.27;99552.53;5055883;28;20045;-93
2022/02/28 05:28:14;;;;;;;14.10;6.63;;;;;;;3.14;77.46;99526.94;5055946;28;20049;-94
2022/02/28 05:30:39;;;;;;;11.50;6.35;;;;;;;3.25;77.46;99560.44;5056047;28;20068;-95
2022/02/28 05:33:05;;;;;;;13.85;6.47;;;;;;;3.09;77.99;99540.91;5056315;28;20441;-93
2022/02/28 05:35:31;;;;;;;13.82;7.10;;;;;;;3.03;78.06;99546.06;5056005;28;20084;-94
2022/02/28 05:37:57;;;;;;;13.07;7.13;;;;;;;3.11;77.28;99532.16;5056996;28;20045;-96
2022/02/28 05:40:23;;;;;;;16.17;7.05;;;;;;;3.07;77.06;99531.22;5056827;28;20049;-96
2022/02/28 05:42:49;;;;;;;12.43;6.65;;;;;;;2.85;78.78;99540.53;5056396;28;20049;-96
2022/02/28 05:45:16;;;;;;;13.05;6.70;;;;;;;2.88;77.84;99533.59;5057806;28;20556;-95
2022/02/28 05:47:42;;;;;;;11.38;5.90;;;;;;;2.82;79.20;99554.50;5056304;28;20102;-96
2022/02/28 05:50:10;;;;;;;11.98;6.18;;;;;;;2.47;80.17;99539.03;5055594;28;20390;-96
2022/02/28 05:52:36;;;;;;;10.38;6.22;;;;;;;2.26;82.84;99552.63;5055971;28;20045;-96
2022/02/28 05:55:02;;;;;;;16.45;6.60;;;;;;;1.99;83.45;99552.97;5055305;28;20052;-96
2022/02/28 05:57:27;;;;;;;10.63;6.05;;;;;;;1.86;84.93;99558.81;5056107;28;20069;-94
2022/02/28 05:59:54;;;;;;;14.73;6.60;;;;;;;1.71;86.70;99585.59;5055627;28;20041;-96
2022/02/28 06:02:21;;;;;;;14.57;7.25;;;;;;;1.56;87.32;99557.34;5055729;28;20118;-96
2022/02/28 06:04:47;;;;;;;10.77;6.72;;;;;;;1.49;87.35;99554.53;5055486;28;20521;-94
2022/02/28 06:07:13;;;;;;;14.68;6.68;;;;;;;1.49;87.52;99567.66;5055019;28;20049;-95
2022/02/28 06:09:39;;;;;;;12.38;5.90;;;;;;;1.40;87.43;99563.97;5055317;28;20049;-96
2022/02/28 06:12:07;;;;;;;11.75;6.60;;;;;;;1.33;87.85;99554.22;5057532;28;20046;-96
2022/02/28 06:14:43;;;;;;;13.95;6.68;;;;;;;1.31;88.50;99555.91;5055425;28;20052;-95
2022/02/28 06:17:09;;;;;;;10.52;6.10;;;;;;;1.40;89.02;99563.97;5055868;28;20044;-96
2022/02/28 06:19:50;;;;;;;12.43;6.35;;;;;;;1.44;89.34;99581.53;5056191;28;20049;-96
2022/02/28 06:22:21;;;;;;;12.73;6.63;;;;;;;1.47;89.66;99582.44;5055906;28;20045;-96
2022/02/28 06:24:47;;;;;;;14.18;7.55;;;;;;;1.58;90.50;99583.56;5057777;28;20076;-96
2022/02/28 06:27:13;;;;;;;12.00;7.22;;;;;;;1.72;88.69;99581.28;5059104;28;20060;-96
2022/02/28 06:29:40;;;;;;;16.73;7.55;;;;;;;2.28;83.10;99573.66;5059360;28;20041;-94
2022/02/28 06:32:06;;;;;;;15.75;8.15;;;;;;;2.82;79.40;99570.25;5058419;28;20045;-96
2022/02/28 06:34:32;;;;;;;14.57;7.65;;;;;;;3.26;76.65;99566.56;5058391;28;20045;-95
2022/02/28 06:37:00;;;;;;;11.88;6.63;;;;;;;3.51;75.02;99578.31;5056763;28;20049;-96
2022/02/28 06:39:26;;;;;;;14.68;6.80;;;;;;;3.42;75.86;99559.78;5056371;28;20132;-95
2022/02/28 06:41:52;;;;;;;14.13;7.20;;;;;;;3.38;75.65;99561.47;5057810;28;20102;-96
2022/02/28 06:44:18;;;;;;;13.05;7.03;;;;;;;3.49;76.20;99580.94;5057692;28;20037;-96
2022/02/28 06:46:44;;;;;;;12.43;7.03;;;;;;;3.43;76.37;99564.19;5057184;28;20037;-96
2022/02/28 06:49:09;;;;;;;16.08;6.93;;;;;;;3.47;76.96;99585.28;5056317;28;20041;-93
2022/02/28 06:51:35;;;;;;;15.65;7.80;;;;;;;3.39;76.62;99562.38;5055533;28;20049;-95
2022/02/28 06:54:04;;;;;;;13.88;7.35;;;;;;;3.42;77.04;99565.91;5055489;28;20437;-96
2022/02/28 06:56:30;;;;;;;12.88;7.80;;;;;;;3.49;76.68;99567.78;5056412;28;20509;-96
2022/02/28 06:58:56;;;;;;;13.30;7.40;;;;;;;3.69;75.36;99575.06;5057610;28;20064;-96
2022/02/28 07:01:22;;;;;;;14.23;6.63;;;;;;;3.87;74.40;99577.94;5055484;28;20056;-96
2022/02/28 07:03:48;;;;;;;11.65;6.45;;;;;;;3.99;73.05;99568.41;5055782;28;20045;-94
2022/02/28 07:06:20;;;;;;;14.25;6.60;;;;;;;4.14;72.65;99584.38;5055130;28;20044;-96
2022/02/28 07:08:47;;;;;;;12.48;6.90;;;;;;;4.19;72.31;99587.97;5056095;28;20045;-95
2022/02/28 07:11:15;;;;;;;10.68;6.88;;;;;;;4.39;70.42;99584.69;5055638;28;20045;-96
2022/02/28 07:13:41;;;;;;;12.65;6.85;;;;;;;4.51;69.56;99584.78;5057586;28;20045;-96
2022/02/28 07:16:07;;;;;;;12.73;6.43;;;;;;;4.68;69.35;99591.16;5057794;28;20080;-95
2022/02/28 07:18:36;;;;;;;14.02;7.25;;;;;;;4.66;68.97;99581.44;5056884;28;20068;-96
2022/02/28 07:21:02;;;;;;;12.82;7.03;;;;;;;4.74;68.04;99577.13;5055844;28;20049;-96
2022/02/28 07:23:28;;;;;;;13.95;6.75;;;;;;;4.97;68.66;99606.34;5056591;28;20051;-96
2022/02/28 07:25:54;;;;;;;14.10;7.35;;;;;;;4.87;68.48;99586.91;5058641;28;20398;-94
2022/02/28 07:28:21;;;;;;;14.32;6.93;;;;;;;5.09;67.00;99603.78;5057521;28;20132;-96
2022/02/28 07:30:47;;;;;;;13.57;7.18;;;;;;;4.98;67.99;99592.28;5059735;28;20506;-96
2022/02/28 07:33:13;;;;;;;14.70;7.63;;;;;;;5.02;67.76;99599.34;5059567;28;20044;-94
2022/02/28 07:35:39;;;;;;;12.48;7.55;;;;;;;5.10;68.14;99612.59;5059218;28;20102;-95
2022/02/28 07:38:05;;;;;;;12.90;7.70;;;;;;;5.32;67.32;99608.38;5058322;28;20040;-95
2022/02/28 07:40:31;;;;;;;13.02;7.13;;;;;;;5.27;66.71;99581.06;5059522;28;20517;-95
2022/02/28 07:42:57;;;;;;;17.55;7.28;;;;;;;5.48;66.82;99597.06;5058419;28;20045;-96
2022/02/28 07:45:24;;;;;;;15.85;7.82;;;;;;;5.48;67.27;99578.59;5059522;28;20041;-94
2022/02/28 07:47:50;;;;;;;13.43;7.50;;;;;;;5.49;66.15;99561.03;5058500;28;20059;-96
2022/02/28 07:50:16;;;;;;;14.10;7.18;;;;;;;5.60;66.78;99558.44;5064539;28;20075;-96
2022/02/28 07:52:42;;;;;;;15.40;8.15;;;;;;;5.73;66.18;99570.84;5062268;28;20113;-94
2022/02/28 07:55:09;;;;;;;18.83;8.27;;;;;;;5.73;66.13;99566.44;5060267;28;20069;-95
2022/02/28 07:57:38;;;;;;;17.42;9.57;;;;;;;5.79;67.22;99556.78;5063141;28;20461;-96
2022/02/28 08:00:05;;;;;;;19.20;9.02;;;;;;;5.90;67.09;99553.31;5065560;28;20033;-95
2022/02/28 08:02:39;;;;;;;15.48;8.15;;;;;;;6.05;66.34;99562.19;5067719;28;20064;-93
2022/02/28 08:05:06;;;;;;;14.48;8.50;;;;;;;6.10;65.77;99550.78;5062250;28;20060;-95
2022/02/28 08:07:37;;;;;;;13.65;7.88;;;;;;;6.24;65.68;99561.38;5064137;28;20127;-96
2022/02/28 08:10:04;;;;;;;18.88;8.23;;;;;;;6.19;63.56;99555.22;5063426;28;20113;-95
2022/02/28 08:12:36;;;;;;;13.02;7.32;;;;;;;6.37;62.18;99562.31;5064595;28;20140;-96
2022/02/28 08:15:06;;;;;;;14.85;9.48;;;;;;;6.19;62.13;99562.25;5061534;28;20052;-94
2022/02/28 08:17:32;;;;;;;14.70;7.47;;;;;;;6.54;60.38;99571.16;5058868;28;20050;-95
2022/02/28 08:20:00;;;;;;;17.83;7.45;;;;;;;6.62;60.15;99547.38;5059753;28;20460;-95
2022/02/28 08:22:25;;;;;;;15.65;7.55;;;;;;;6.43;60.00;99558.81;5059312;28;20502;-95
2022/02/28 08:24:51;;;;;;;15.10;7.60;;;;;;;6.55;61.27;99583.50;5059801;28;20059;-95
2022/02/28 08:27:17;;;;;;;14.55;7.85;;;;;;;6.85;61.33;99586.19;5058468;28;20115;-94
2022/02/28 08:29:43;;;;;;;17.02;7.80;;;;;;;6.72;60.58;99553.56;5059517;28;20077;-95
2022/02/28 08:32:09;;;;;;;12.32;7.65;;;;;;;6.88;59.86;99546.53;5060195;28;20458;-95
2022/02/28 08:34:38;;;;;;;14.00;7.68;;;;;;;7.01;58.86;99550.94;5061827;28;20103;-94
2022/02/28 08:37:06;;;;;;;13.73;7.97;;;;;;;6.93;59.36;99545.63;5068647;28;20089;-95
2022/02/28 08:39:32;;;;;;;12.90;7.22;;;;;;;7.19;57.49;99557.97;5080080;28;20048;-94
2022/02/28 08:41:58;;;;;;;11.63;7.22;;;;;;;6.96;57.31;99545.66;5082158;28;20611;-95
2022/02/28 08:44:24;;;;;;;12.48;6.90;;;;;;;7.16;57.96;99535.06;5085365;28;20521;-95
2022/02/28 08:46:50;;;;;;;12.77;7.28;;;;;;;7.54;57.96;99567.63;5083365;28;20100;-95
2022/02/28 08:49:17;;;;;;;15.18;7.55;;;;;;;7.44;56.59;99535.03;5064383;28;20049;-96
2022/02/28 08:51:43;;;;;;;11.55;7.18;;;;;;;7.56;55.19;99540.28;5061855;28;20044;-95
2022/02/28 08:54:13;;;;;;;11.50;6.93;;;;;;;7.60;55.63;99544.66;5061817;28;20068;-94
2022/02/28 08:56:40;;;;;;;12.60;7.57;;;;;;;7.68;55.20;99533.22;5062138;28;20427;-95
2022/02/28 08:59:06;;;;;;;14.63;7.68;;;;;;;7.75;54.95;99525.22;5060079;28;20118;-95
2022/02/28 09:01:36;;;;;;;15.75;7.25;;;;;;;7.85;55.42;99546.34;5062653;28;20084;-93
2022/02/28 09:04:03;;;;;;;12.65;7.35;;;;;;;7.74;54.80;99538.44;5058623;28;20401;-93
2022/02/28 09:06:28;;;;;;;12.13;7.30;;;;;;;7.91;54.47;99557.81;5060204;28;20049;-95
2022/02/28 09:08:54;;;;;;;13.27;7.80;;;;;;;7.99;55.86;99552.50;5060357;28;20044;-95
2022/02/28 09:11:22;;;;;;;13.20;5.97;;;;;;;7.87;53.36;99552.53;5057018;28;20508;-92
2022/02/28 09:13:48;;;;;;;14.90;7.75;;;;;;;7.64;54.69;99536.75;5062562;28;20559;-95
2022/02/28 09:16:14;;;;;;;12.55;7.50;;;;;;;7.81;56.11;99567.56;5058035;28;20045;-94
2022/02/28 09:18:40;;;;;;;13.45;7.45;;;;;;;7.95;53.61;99545.44;5057161;28;20045;-95
2022/02/28 09:21:07;;;;;;;12.82;7.10;;;;;;;7.95;53.91;99574.56;5057320;28;20049;-95
2022/02/28 09:23:33;;;;;;;12.52;7.93;;;;;;;7.61;54.94;99578.22;5059835;28;20166;-96
2022/02/28 09:25:59;;;;;;;13.30;6.72;;;;;;;7.64;54.12;99547.34;5058432;28;20049;-95
2022/02/28 09:28:26;;;;;;;11.52;7.25;;;;;;;7.80;54.37;99546.38;5058759;28;20052;-95
2022/02/28 09:30:53;;;;;;;12.38;6.72;;;;;;;8.11;52.54;99560.41;5056357;28;20059;-95
2022/02/28 09:33:20;;;;;;;12.45;7.03;;;;;;;8.27;53.64;99537.34;5059884;28;20056;-95
2022/02/28 09:35:47;;;;;;;14.98;7.60;;;;;;;8.69;53.38;99563.63;5060187;28;20041;-96
2022/02/28 09:38:13;;;;;;;12.32;6.97;;;;;;;8.67;53.78;99537.13;5059159;28;20041;-95
2022/02/28 09:40:43;;;;;;;11.45;7.35;;;;;;;8.68;53.96;99551.28;5059409;28;20040;-95
2022/02/28 09:43:10;;;;;;;14.10;6.97;;;;;;;8.80;51.46;99554.72;5057750;28;20048;-92
2022/02/28 09:45:38;;;;;;;13.32;7.60;;;;;;;7.96;52.35;99539.28;5057887;28;20135;-96
2022/02/28 09:48:06;;;;;;;11.85;7.47;;;;;;;8.23;53.61;99532.94;5056954;28;20513;-93
2022/02/28 09:50:32;;;;;;;13.57;7.10;;;;;;;8.51;51.64;99544.31;5056188;28;20078;-95
2022/02/28 09:52:58;;;;;;;14.57;7.53;;;;;;;8.63;50.90;99567.19;5056543;28;20793;-96
2022/02/28 09:55:24;;;;;;;13.25;7.10;;;;;;;8.61;52.42;99535.41;5058029;28;20049;-96
2022/02/28 09:57:51;;;;;;;12.05;7.28;;;;;;;8.86;51.84;99558.22;5059281;28;20437;-96
2022/02/28 10:00:18;;;;;;;11.73;7.20;;;;;;;8.92;51.97;99560.81;5058742;28;20478;-96
2022/02/28 10:02:46;;;;;;;13.82;7.22;;;;;;;8.59;51.07;99574.31;5058406;28;20045;-94
2022/02/28 10:05:12;;;;;;;12.55;6.88;;;;;;;8.71;50.45;99564.50;5056238;28;20075;-95
2022/02/28 10:07:49;;;;;;;14.10;7.05;;;;;;;9.05;50.62;99579.28;5059619;28;20048;-96
2022/02/28 10:10:15;;;;;;;13.63;7.30;;;;;;;9.12;50.09;99573.94;5055183;28;20099;-95
2022/02/28 10:12:41;;;;;;;12.27;7.15;;;;;;;9.26;50.50;99561.44;5055024;28;20033;-93
2022/02/28 10:15:12;;;;;;;13.70;7.55;;;;;;;9.30;50.08;99565.78;5053778;28;20552;-92
2022/02/28 10:17:43;;;;;;;10.82;6.97;;;;;;;9.18;48.95;99574.75;5054671;28;20459;-95
2022/02/28 10:20:21;;;;;;;11.57;6.90;;;;;;;9.17;48.74;99538.50;5055017;28;20049;-96
2022/02/28 10:22:51;;;;;;;14.40;8.35;;;;;;;9.18;49.36;99573.88;5056276;28;20062;-95
2022/02/28 10:25:29;;;;;;;13.65;8.43;;;;;;;8.78;49.04;99576.81;5055504;28;20053;-96
2022/02/28 10:28:24;;;;;;;11.15;6.60;;;;;;;9.14;49.47;99570.38;5056242;28;20037;-95
2022/02/28 10:30:56;;;;;;;12.77;7.32;;;;;;;9.36;49.45;99549.81;5033259;28;20049;-95
2022/02/28 10:33:28;;;;;;;12.25;7.55;;;;;;;9.64;46.43;99545.09;5033696;28;20072;-94
2022/02/28 10:36:10;;;;;;;11.77;8.13;;;;;;;10.06;47.18;99560.56;5033196;28;20049;-94
2022/02/28 10:38:42;;;;;;;11.07;7.38;;;;;;;10.07;45.32;99573.84;5032467;28;20057;-96
2022/02/28 10:41:19;;;;;;;15.13;8.80;;;;;;;9.97;46.12;99547.38;5032775;28;20181;-92
2022/02/28 10:43:45;;;;;;;16.90;8.05;;;;;;;9.78;46.31;99541.41;5032582;28;20043;-95
2022/02/28 10:46:16;;;;;;;13.52;8.10;;;;;;;9.88;47.62;99553.69;5032620;28;20467;-92
2022/02/28 10:48:54;;;;;;;13.05;7.50;;;;;;;9.97;46.12;99566.00;5035631;28;20049;-94
2022/02/28 10:51:21;;;;;;;15.95;8.05;;;;;;;9.78;46.95;99550.28;5029456;28;20045;-94
2022/02/28 10:54:13;;;;;;;11.55;6.97;;;;;;;9.93;46.74;99559.84;5032374;28;20414;-95
2022/02/28 10:56:48;;;;;;;12.90;8.15;;;;;;;10.15;45.58;99551.59;5027179;28;20371;-94
2022/02/28 10:59:14;;;;;;;13.45;7.57;;;;;;;9.82;45.89;99537.81;5031225;28;20250;-93
2022/02/28 11:01:40;;;;;;;11.18;7.20;;;;;;;9.71;47.68;99526.44;5032079;28;20050;-95
2022/02/28 11:04:09;;;;;;;11.30;7.00;;;;;;;9.84;46.79;99523.63;5032503;28;20045;-95
2022/02/28 11:06:38;;;;;;;16.38;8.02;;;;;;;9.69;46.48;99522.94;5044080;28;20382;-92
2022/02/28 11:09:05;;;;;;;11.52;7.25;;;;;;;9.84;46.80;99534.25;5054550;28;20064;-96
2022/02/28 11:11:31;;;;;;;10.77;6.82;;;;;;;9.80;46.17;99526.34;5054397;28;20065;-96
2022/02/28 11:13:58;;;;;;;16.50;10.43;;;;;;;9.97;45.54;99537.63;5054460;28;20163;-95
2022/02/28 11:16:25;;;;;;;19.13;10.73;;;;;;;9.77;46.67;99529.03;5055669;28;20041;-95
2022/02/28 11:18:52;;;;;;;14.95;9.15;;;;;;;9.30;47.36;99535.72;5056311;28;20037;-94
2022/02/28 11:21:18;;;;;;;14.20;8.18;;;;;;;9.03;47.04;99508.56;5059871;28;20049;-94
2022/02/28 11:23:47;;;;;;;15.20;8.55;;;;;;;8.76;48.72;99504.34;5059854;28;20048;-94
2022/02/28 11:26:13;;;;;;;13.80;8.47;;;;;;;8.95;48.48;99523.66;5052911;28;20049;-96
2022/02/28 11:28:40;;;;;;;13.40;8.95;;;;;;;9.17;47.95;99521.69;5056640;28;20041;-95
2022/02/28 11:31:10;;;;;;;14.23;8.43;;;;;;;9.41;47.74;99512.59;5057572;28;20040;-95
2022/02/28 11:33:39;;;;;;;10.43;6.82;;;;;;;9.26;47.91;99492.44;5057940;28;20099;-96